Palanca Luanda — V7ZC7 — position and weather

sailwx.info

Track history (hours):
 
Tides and Currents Weather Stations Pressure Air Temp Water Temp Dewpoint Dewpoint Depression Visibility Wind Speed Wind Dir Waves Ship Positions

Palanca Luanda

Last reported at 2018-Feb-21 12:32 UTC. Time now 2018-Feb-22 09:03 UTC.
Position N 01°15' E 104°07'.

Length 134 m; draft 5.6 m.

Type: Ship. MMSI: 538004791.

Date/timePositionNaut miles runAvg speedWind from/ knotsBaromVisibWave heightAir tempDewpointWater temp
2018-Feb-21 12:32N 01°15' E 104°07'110.9
2018-Feb-21 12:29N 01°15' E 104°06'611.6
2018-Feb-21 11:59N 01°14' E 104°00'511.2
2018-Feb-21 11:30N 01°13' E 103°55'510.5
2018-Feb-21 11:01N 01°11' E 103°50'3 6.8
2018-Feb-21 10:30N 01°13' E 103°48'0 0.7
2018-Feb-21 09:58N 01°14' E 103°48'0 0.0
2018-Feb-21 09:25N 01°14' E 103°48'0 0.0
2018-Feb-21 08:52N 01°14' E 103°48'0 0.1
2018-Feb-21 08:28N 01°14' E 103°48'0 0.0
2018-Feb-21 07:58N 01°14' E 103°48'0 0.0
2018-Feb-21 07:28N 01°14' E 103°48'0 0.0
2018-Feb-21 06:46N 01°14' E 103°48'0 0.0
2018-Feb-21 06:28N 01°14' E 103°48'0 0.0
2018-Feb-21 05:55N 01°14' E 103°48'0 0.0
2018-Feb-21 05:28N 01°14' E 103°48'0 0.0
2018-Feb-21 04:58N 01°14' E 103°48'0 0.0
2018-Feb-21 04:28N 01°14' E 103°48'0 0.0
2018-Feb-21 03:58N 01°14' E 103°48'0 0.0
2018-Feb-21 03:29N 01°14' E 103°48'1 2.4
2018-Feb-21 03:00N 01°14' E 103°47'4 7.7
2018-Feb-21 02:30N 01°14' E 103°43'5 9.6
2018-Feb-21 02:00N 01°12' E 103°39'4 7.5
2018-Feb-21 01:30N 01°13' E 103°35'6 8.9
2018-Feb-21 00:53N 01°10' E 103°30'3 9.0
2018-Feb-21 00:30N 01°10' E 103°27'610.4
2018-Feb-20 23:58N 01°13' E 103°23'  
Track history (hours):
 
Tides and Currents Weather Stations Pressure Air Temp Water Temp Dewpoint Dewpoint Depression Visibility Wind Speed Wind Dir Waves Ship Positions

Palanca Luanda

Last reported at 2018-Feb-21 12:32 UTC. Time now 2018-Feb-22 09:03 UTC.
Position N 01°15' E 104°07'.

Length 134 m; draft 5.6 m.

Type: Ship. MMSI: 538004791.

Date/timePositionNaut miles runAvg speedWind from/ knotsBaromVisibWave heightAir tempDewpointWater temp
2018-Feb-21 12:32N 01°15' E 104°07'110.9
2018-Feb-21 12:29N 01°15' E 104°06'611.6
2018-Feb-21 11:59N 01°14' E 104°00'511.2
2018-Feb-21 11:30N 01°13' E 103°55'510.5
2018-Feb-21 11:01N 01°11' E 103°50'3 6.8
2018-Feb-21 10:30N 01°13' E 103°48'0 0.7
2018-Feb-21 09:58N 01°14' E 103°48'0 0.0
2018-Feb-21 09:25N 01°14' E 103°48'0 0.0
2018-Feb-21 08:52N 01°14' E 103°48'0 0.1
2018-Feb-21 08:28N 01°14' E 103°48'0 0.0
2018-Feb-21 07:58N 01°14' E 103°48'0 0.0
2018-Feb-21 07:28N 01°14' E 103°48'0 0.0
2018-Feb-21 06:46N 01°14' E 103°48'0 0.0
2018-Feb-21 06:28N 01°14' E 103°48'0 0.0
2018-Feb-21 05:55N 01°14' E 103°48'0 0.0
2018-Feb-21 05:28N 01°14' E 103°48'0 0.0
2018-Feb-21 04:58N 01°14' E 103°48'0 0.0
2018-Feb-21 04:28N 01°14' E 103°48'0 0.0
2018-Feb-21 03:58N 01°14' E 103°48'0 0.0
2018-Feb-21 03:29N 01°14' E 103°48'1 2.4
2018-Feb-21 03:00N 01°14' E 103°47'4 7.7
2018-Feb-21 02:30N 01°14' E 103°43'5 9.6
2018-Feb-21 02:00N 01°12' E 103°39'4 7.5
2018-Feb-21 01:30N 01°13' E 103°35'6 8.9
2018-Feb-21 00:53N 01°10' E 103°30'3 9.0
2018-Feb-21 00:30N 01°10' E 103°27'610.4
2018-Feb-20 23:58N 01°13' E 103°23'  

Dump ship's entire track history